Minden-Tahoe Airport

Airport
ICAO code: 
KMEV
IATA Code: 
MEV
Summary
ICAO Region: 
NAM
Territory: 
Location: 
Minden, Nevada
Serving: 
Minden
Elevation: 
4726 ft
Coordinates: 
Aerial View: 
39° 0' 1.984" N, 119° 45' 8.305" W
Metar
Observation
KMEV 011335Z AUTO 00000KT 10SM CLR M08/M09 A3044 RMK AO2
Station
Minden-Tahoe Airport
Date/Time
2021-12-01 13:35:00
Wind direction
Wind speed
00 kts
Lowest cloud amount
n/a
Temperature
-8°C
Dew point
-9°C
Humidity
92%
Weather condition
n/a

Runways

Designator Length Width Surface Rops
12G/30G 671 18 DIRT-G No/No
12/30 1615 23 ASPH-G Yes/Yes
16/34 2256 30 ASP Yes/Yes
Airport map: 
Aerial View: 

SKYbrary Partners:

Safety knowledge contributed by: